createdAt,value
2023-01-06T00:01:32.259Z,9.37
2023-01-06T00:04:01.014Z,9.64
2023-01-06T00:06:31.267Z,9.40
2023-01-06T00:09:02.784Z,9.49
2023-01-06T00:11:31.633Z,9.54
2023-01-06T00:14:00.125Z,9.54
2023-01-06T00:16:28.336Z,9.65
2023-01-06T00:18:58.055Z,9.33
2023-01-06T00:21:26.945Z,9.55
2023-01-06T00:23:55.433Z,9.35
2023-01-06T00:26:24.256Z,9.30
2023-01-06T00:28:56.181Z,9.60
2023-01-06T00:31:26.499Z,9.68
2023-01-06T00:33:59.070Z,9.38
2023-01-06T00:36:27.385Z,9.26
2023-01-06T00:38:55.328Z,9.51
2023-01-06T00:41:42.335Z,9.46
2023-01-06T00:44:10.599Z,9.45
2023-01-06T00:46:38.846Z,9.47
2023-01-06T00:49:07.776Z,9.64
2023-01-06T00:51:37.922Z,9.48
2023-01-06T00:54:09.878Z,9.85
2023-01-06T00:56:46.902Z,9.46
2023-01-06T00:59:17.779Z,9.73
2023-01-06T01:01:47.604Z,9.82
2023-01-06T01:04:16.528Z,9.47
2023-01-06T01:06:45.688Z,9.63
2023-01-06T01:09:26.932Z,9.33
2023-01-06T01:12:10.627Z,9.58
2023-01-06T01:14:51.055Z,9.39
2023-01-06T01:17:31.134Z,9.85
2023-01-06T01:20:01.225Z,9.46
2023-01-06T01:22:31.068Z,9.44
2023-01-06T01:25:01.734Z,9.47
2023-01-06T01:27:29.657Z,9.71
2023-01-06T01:29:57.620Z,9.62
2023-01-06T01:32:26.027Z,9.79
2023-01-06T01:34:54.085Z,9.78
2023-01-06T01:37:21.997Z,9.70
2023-01-06T01:39:50.299Z,9.85
2023-01-06T01:42:20.990Z,9.42
2023-01-06T01:44:55.043Z,9.48
2023-01-06T01:47:26.057Z,9.71
2023-01-06T01:49:57.486Z,9.58
2023-01-06T01:52:26.058Z,9.67
2023-01-06T01:54:55.828Z,9.49
2023-01-06T01:57:30.159Z,9.67
2023-01-06T01:59:59.886Z,9.90
2023-01-06T02:02:30.952Z,9.45
2023-01-06T02:05:01.199Z,9.47
2023-01-06T02:07:29.169Z,9.20
2023-01-06T02:10:11.278Z,9.07
2023-01-06T02:12:40.500Z,9.48
2023-01-06T02:15:19.172Z,9.24
2023-01-06T02:18:03.539Z,9.27
2023-01-06T02:20:58.946Z,9.01
2023-01-06T02:23:33.098Z,8.98
2023-01-06T02:26:35.297Z,9.17
2023-01-06T02:29:25.192Z,9.36
2023-01-06T02:32:17.537Z,9.43
2023-01-06T02:34:54.591Z,9.73
2023-01-06T02:37:22.809Z,9.50
2023-01-06T02:40:13.383Z,9.03
2023-01-06T02:43:09.316Z,9.18
2023-01-06T02:45:54.247Z,9.38
2023-01-06T02:48:38.341Z,9.63
2023-01-06T02:51:19.119Z,9.52
2023-01-06T02:54:14.348Z,9.09
2023-01-06T02:56:49.730Z,9.07
2023-01-06T02:59:26.031Z,8.91
2023-01-06T03:01:55.279Z,9.16
2023-01-06T03:04:26.656Z,9.15
2023-01-06T03:06:56.848Z,8.97
2023-01-06T03:09:29.968Z,9.40
2023-01-06T03:12:01.118Z,9.06
2023-01-06T03:14:38.873Z,8.88
2023-01-06T03:17:06.928Z,9.61
2023-01-06T03:19:34.906Z,8.85
2023-01-06T03:22:04.037Z,8.96
2023-01-06T03:24:32.334Z,9.37
2023-01-06T03:27:00.334Z,9.64
2023-01-06T03:29:28.513Z,9.32
2023-01-06T03:31:59.847Z,9.54
2023-01-06T03:34:33.616Z,9.26
2023-01-06T03:37:11.609Z,9.17
2023-01-06T03:39:49.755Z,9.00
2023-01-06T03:42:52.210Z,9.19
2023-01-06T03:45:59.330Z,9.26
2023-01-06T03:48:49.459Z,9.03
2023-01-06T03:51:39.455Z,9.07
2023-01-06T03:54:37.187Z,9.29
2023-01-06T03:57:09.430Z,9.11
2023-01-06T03:59:43.415Z,9.29
2023-01-06T04:02:13.448Z,8.73
2023-01-06T04:04:42.043Z,9.07
2023-01-06T04:07:11.696Z,8.97
2023-01-06T04:09:39.889Z,9.04
2023-01-06T04:12:27.064Z,8.87
2023-01-06T04:14:55.062Z,9.06
2023-01-06T04:17:23.380Z,9.18
2023-01-06T04:19:52.013Z,9.34
2023-01-06T04:22:20.940Z,8.80
2023-01-06T04:24:49.309Z,9.02
2023-01-06T04:27:17.308Z,8.96
2023-01-06T04:29:45.580Z,9.33
2023-01-06T04:32:14.127Z,9.29
2023-01-06T04:34:42.395Z,9.00
2023-01-06T04:37:11.478Z,8.90
2023-01-06T04:39:39.786Z,9.12
2023-01-06T04:42:07.717Z,9.32
2023-01-06T04:44:35.804Z,9.16
2023-01-06T04:47:04.169Z,9.28
2023-01-06T04:49:32.099Z,8.87
2023-01-06T04:52:00.073Z,8.89
2023-01-06T04:54:28.458Z,9.06
2023-01-06T04:56:56.579Z,9.02
2023-01-06T04:59:24.612Z,8.75
2023-01-06T05:01:52.913Z,9.13
2023-01-06T05:04:20.990Z,9.29
2023-01-06T05:06:49.041Z,9.11
2023-01-06T05:09:17.424Z,9.30
2023-01-06T05:11:45.517Z,8.85
2023-01-06T05:14:13.594Z,9.07
2023-01-06T05:16:41.989Z,9.25
2023-01-06T05:19:10.289Z,9.16
2023-01-06T05:21:38.222Z,9.09
2023-01-06T05:24:06.668Z,8.78
2023-01-06T05:26:34.612Z,9.16
2023-01-06T05:29:02.632Z,9.60
2023-01-06T05:31:30.984Z,9.20
2023-01-06T05:33:58.920Z,9.04
2023-01-06T05:36:26.887Z,9.30
2023-01-06T05:38:55.298Z,9.15
2023-01-06T05:41:23.358Z,9.02
2023-01-06T05:43:51.263Z,8.67
2023-01-06T05:46:19.540Z,8.89
2023-01-06T05:48:47.577Z,8.90
2023-01-06T05:51:16.560Z,8.61
2023-01-06T05:53:47.387Z,8.81
2023-01-06T05:56:18.163Z,8.62
2023-01-06T05:58:48.164Z,8.87
2023-01-06T06:01:28.874Z,8.91
2023-01-06T06:03:57.485Z,8.88
2023-01-06T06:06:28.071Z,8.76
2023-01-06T06:08:55.959Z,8.98
2023-01-06T06:11:24.382Z,9.21
2023-01-06T06:13:56.759Z,8.65
2023-01-06T06:16:27.622Z,8.37
2023-01-06T06:18:57.517Z,8.51
2023-01-06T06:21:27.947Z,8.81
2023-01-06T06:23:56.987Z,8.88
2023-01-06T06:26:26.069Z,8.37
2023-01-06T06:28:54.450Z,8.29
2023-01-06T06:31:28.133Z,8.35
2023-01-06T06:33:58.605Z,8.51
2023-01-06T06:36:27.122Z,8.36
2023-01-06T06:38:55.427Z,8.26
2023-01-06T06:41:25.108Z,8.49
2023-01-06T06:43:53.452Z,7.95
2023-01-06T06:46:21.591Z,8.62
2023-01-06T06:48:51.016Z,8.49
2023-01-06T06:51:21.277Z,8.20
2023-01-06T06:53:50.289Z,8.29
2023-01-06T06:56:19.225Z,8.45
2023-01-06T06:58:47.334Z,8.43
2023-01-06T07:01:18.291Z,8.20
2023-01-06T07:03:46.446Z,8.15
2023-01-06T07:06:20.760Z,8.37
2023-01-06T07:08:50.059Z,8.17
2023-01-06T07:11:18.411Z,8.50
2023-01-06T07:13:46.711Z,9.11
2023-01-06T07:16:15.293Z,9.95
2023-01-06T07:18:43.277Z,10.01
2023-01-06T07:21:11.401Z,10.04
2023-01-06T07:23:39.550Z,10.03
2023-01-06T07:26:07.627Z,10.09
2023-01-06T07:28:35.659Z,10.30
2023-01-06T07:31:04.175Z,10.26
2023-01-06T07:33:32.309Z,10.13
2023-01-06T07:36:02.597Z,9.94
2023-01-06T07:38:31.831Z,9.82
2023-01-06T07:41:01.299Z,9.87
2023-01-06T07:43:29.579Z,10.40
2023-01-06T07:45:59.694Z,10.58
2023-01-06T07:48:28.858Z,10.42
2023-01-06T07:50:58.539Z,10.35
2023-01-06T07:53:26.846Z,10.95
2023-01-06T07:55:55.369Z,10.88
2023-01-06T07:58:27.092Z,11.30
2023-01-06T08:00:54.988Z,11.42
2023-01-06T08:03:23.417Z,11.61
2023-01-06T08:05:51.518Z,12.49
2023-01-06T08:08:19.474Z,11.31
2023-01-06T08:10:48.079Z,12.00
2023-01-06T08:13:16.038Z,12.02
2023-01-06T08:15:44.174Z,11.71
2023-01-06T08:18:12.583Z,12.41
2023-01-06T08:20:40.469Z,12.63
2023-01-06T08:23:08.458Z,12.40
2023-01-06T08:25:36.782Z,12.25
2023-01-06T08:28:05.037Z,12.04
2023-01-06T08:30:40.085Z,11.60
2023-01-06T08:33:08.469Z,11.65
2023-01-06T08:35:36.542Z,11.89
2023-01-06T08:38:04.631Z,12.13
2023-01-06T08:40:33.058Z,12.06
2023-01-06T08:43:01.139Z,12.07
2023-01-06T08:45:29.128Z,12.15
2023-01-06T08:47:57.570Z,12.68
2023-01-06T08:50:26.625Z,11.69
2023-01-06T08:52:55.473Z,11.05
2023-01-06T08:55:23.857Z,11.77
2023-01-06T08:57:54.738Z,11.12
2023-01-06T09:00:23.651Z,10.99
2023-01-06T09:02:52.069Z,10.58
2023-01-06T09:05:20.221Z,10.97
2023-01-06T09:07:49.897Z,10.69
2023-01-06T09:10:19.466Z,9.98
2023-01-06T09:12:47.755Z,10.11
2023-01-06T09:15:16.429Z,9.98
2023-01-06T09:17:44.551Z,9.76
2023-01-06T09:20:12.610Z,10.41
2023-01-06T09:22:41.038Z,10.20
2023-01-06T09:25:09.358Z,10.16
2023-01-06T09:27:37.552Z,10.01
2023-01-06T09:30:08.268Z,10.05
2023-01-06T09:32:36.440Z,9.94
2023-01-06T09:35:04.837Z,10.00
2023-01-06T09:37:33.168Z,9.85
2023-01-06T09:40:01.210Z,10.30
2023-01-06T09:43:16.921Z,10.35
2023-01-06T09:45:52.335Z,9.65
2023-01-06T09:48:26.689Z,9.92
2023-01-06T09:51:00.102Z,9.85
2023-01-06T09:53:35.643Z,10.15
2023-01-06T09:56:08.181Z,10.17
2023-01-06T09:59:14.527Z,9.93
2023-01-06T20:21:38.404Z,6.59
2023-01-06T20:24:08.596Z,6.78
2023-01-06T20:26:37.200Z,6.98
2023-01-06T20:29:06.161Z,7.84
2023-01-06T20:31:34.943Z,8.04
2023-01-06T20:34:03.006Z,8.06
2023-01-06T20:36:30.872Z,8.02
2023-01-06T20:38:59.427Z,7.81
2023-01-06T20:41:27.485Z,7.90
2023-01-06T20:43:55.517Z,7.43
2023-01-06T20:46:23.943Z,7.57
2023-01-06T20:48:51.998Z,7.41
2023-01-06T20:51:19.898Z,7.81
2023-01-06T20:53:49.466Z,8.08
2023-01-06T20:56:17.625Z,7.50
2023-01-06T20:58:45.520Z,7.53
2023-01-06T21:01:13.891Z,7.44
2023-01-06T21:03:41.967Z,7.57
2023-01-06T21:06:09.907Z,8.08
2023-01-06T21:08:38.478Z,8.24
2023-01-06T21:11:06.469Z,8.33
2023-01-06T21:13:34.428Z,8.23
2023-01-06T21:16:02.842Z,8.53
2023-01-06T21:18:30.886Z,8.47
2023-01-06T21:20:58.880Z,7.86
2023-01-06T21:23:27.266Z,7.37
2023-01-06T21:25:55.359Z,7.35
2023-01-06T21:28:23.574Z,7.00
2023-01-06T21:30:52.131Z,6.87
2023-01-06T21:33:21.732Z,7.11
2023-01-06T21:35:50.339Z,7.57
2023-01-06T21:38:18.716Z,7.66
2023-01-06T21:40:46.707Z,6.56
2023-01-06T21:43:14.697Z,7.10
2023-01-06T21:45:44.527Z,7.88
2023-01-06T21:48:13.460Z,7.37
2023-01-06T21:50:43.812Z,8.03
2023-01-06T21:53:12.739Z,7.72
2023-01-06T21:55:41.724Z,8.22
2023-01-06T21:58:10.478Z,7.53
2023-01-06T22:00:39.199Z,7.54
2023-01-06T22:03:07.673Z,8.10
2023-01-06T22:05:35.860Z,7.15
2023-01-06T22:08:04.657Z,7.37
2023-01-06T22:10:32.969Z,7.22
2023-01-06T22:13:01.088Z,7.35
2023-01-06T22:15:29.167Z,7.42
2023-01-06T22:17:59.377Z,7.78
2023-01-06T22:20:29.292Z,7.85
2023-01-06T22:23:05.432Z,7.83
2023-01-06T22:25:33.466Z,8.03
2023-01-06T22:28:03.394Z,7.91
2023-01-06T22:30:31.541Z,8.21
2023-01-06T22:32:59.650Z,8.17
2023-01-06T22:35:28.839Z,7.71
2023-01-06T22:37:56.977Z,7.81
2023-01-06T22:40:25.358Z,7.87
2023-01-06T22:42:53.953Z,7.89
2023-01-06T22:45:21.971Z,7.94
2023-01-06T22:47:50.012Z,8.39
2023-01-06T22:50:18.444Z,8.53
2023-01-06T22:52:46.480Z,8.35
2023-01-06T22:55:14.636Z,8.23
2023-01-06T22:57:42.969Z,8.34
2023-01-06T23:00:14.978Z,8.38
2023-01-06T23:02:43.740Z,8.34
2023-01-06T23:05:12.021Z,8.22
2023-01-06T23:07:41.745Z,8.31
2023-01-06T23:10:11.694Z,8.26
2023-01-06T23:12:40.963Z,8.25
2023-01-06T23:15:10.001Z,8.55
2023-01-06T23:17:38.329Z,8.08
2023-01-06T23:20:06.969Z,8.00
2023-01-06T23:22:35.297Z,8.60
2023-01-06T23:25:03.431Z,7.94
2023-01-06T23:27:31.622Z,7.73
2023-01-06T23:30:00.146Z,7.72
2023-01-06T23:32:28.135Z,7.31
2023-01-06T23:34:56.048Z,7.42
2023-01-06T23:37:24.561Z,7.12
2023-01-06T23:39:53.515Z,6.86
2023-01-06T23:42:21.557Z,6.79
2023-01-06T23:44:49.902Z,7.17
2023-01-06T23:47:17.838Z,7.60
2023-01-06T23:49:48.387Z,7.06
2023-01-06T23:52:16.642Z,6.88
2023-01-06T23:54:44.554Z,6.15
2023-01-06T23:57:12.548Z,6.20
2023-01-06T23:59:40.799Z,6.23
